Goose Bay, Canada
Current Conditions -  °F | °C
As of 11:00 AM on Sunday 21 Dec 2014 (Local Time) from CYYR Reporting Station
Few Clouds Few Clouds  
Wind Chill:   Ceiling: Unl
Heat Index: 10°   Visibility: 15mi
Dew Point:   Wind: 5mph
Humidity: 62%   Direction: 280°W
Pressure: 30.33"   Gusts: NA
Location:  53.31°N, 60.41°W
Report Text: CYYR 211500Z 28004KT 15SM FEW030 FEW250 M12/M18 A3033 RMK SC1CI0 SLP275
Loading
Personal Weather Stations






























Interactive Weather Map New forecast layout! Learn more

10-Day Weather Forecast

Advertisements
Track Severe Weather on mobile